sensor_id;sensor_type;location;lat;lon;timestamp;P1;durP1;ratioP1;P2;durP2;ratioP2
34876;SDS011;21086;44.780;17.194;2023-08-30T00:00:19;2.60;;;1.00;;
34876;SDS011;21086;44.780;17.194;2023-08-30T00:03:09;3.67;;;0.98;;
34876;SDS011;21086;44.780;17.194;2023-08-30T00:06:02;2.05;;;1.02;;
34876;SDS011;21086;44.780;17.194;2023-08-30T00:08:50;2.97;;;1.15;;
34876;SDS011;21086;44.780;17.194;2023-08-30T00:11:37;3.45;;;1.05;;
34876;SDS011;21086;44.780;17.194;2023-08-30T00:14:25;2.92;;;0.90;;
34876;SDS011;21086;44.780;17.194;2023-08-30T00:17:12;2.42;;;0.95;;
34876;SDS011;21086;44.780;17.194;2023-08-30T00:19:59;3.25;;;1.05;;
34876;SDS011;21086;44.780;17.194;2023-08-30T00:22:47;1.88;;;0.98;;
34876;SDS011;21086;44.780;17.194;2023-08-30T00:25:37;1.27;;;0.90;;
34876;SDS011;21086;44.780;17.194;2023-08-30T00:28:24;4.10;;;1.27;;
34876;SDS011;21086;44.780;17.194;2023-08-30T00:31:11;1.50;;;0.70;;
34876;SDS011;21086;44.780;17.194;2023-08-30T00:33:59;2.38;;;1.02;;
34876;SDS011;21086;44.780;17.194;2023-08-30T00:36:46;3.15;;;1.02;;
34876;SDS011;21086;44.780;17.194;2023-08-30T00:39:34;1.52;;;0.80;;
34876;SDS011;21086;44.780;17.194;2023-08-30T00:42:24;3.40;;;1.10;;
34876;SDS011;21086;44.780;17.194;2023-08-30T00:45:11;1.60;;;0.85;;
34876;SDS011;21086;44.780;17.194;2023-08-30T00:47:58;2.15;;;1.00;;
34876;SDS011;21086;44.780;17.194;2023-08-30T00:50:46;2.15;;;0.90;;
34876;SDS011;21086;44.780;17.194;2023-08-30T00:53:33;1.45;;;0.85;;
34876;SDS011;21086;44.780;17.194;2023-08-30T00:56:21;3.03;;;0.80;;
34876;SDS011;21086;44.780;17.194;2023-08-30T00:59:09;3.67;;;1.00;;
34876;SDS011;21086;44.780;17.194;2023-08-30T01:01:57;4.35;;;1.25;;
34876;SDS011;21086;44.780;17.194;2023-08-30T01:04:45;3.55;;;1.17;;
34876;SDS011;21086;44.780;17.194;2023-08-30T01:07:33;3.20;;;1.17;;
34876;SDS011;21086;44.780;17.194;2023-08-30T01:10:25;2.63;;;1.30;;
34876;SDS011;21086;44.780;17.194;2023-08-30T01:13:24;2.53;;;1.10;;
34876;SDS011;21086;44.780;17.194;2023-08-30T01:16:14;5.00;;;1.15;;
34876;SDS011;21086;44.780;17.194;2023-08-30T01:19:05;2.92;;;0.95;;
34876;SDS011;21086;44.780;17.194;2023-08-30T01:22:19;3.38;;;1.20;;
34876;SDS011;21086;44.780;17.194;2023-08-30T01:28:22;2.13;;;1.20;;
34876;SDS011;21086;44.780;17.194;2023-08-30T01:31:13;2.90;;;1.10;;
34876;SDS011;21086;44.780;17.194;2023-08-30T01:34:01;1.58;;;0.90;;
34876;SDS011;21086;44.780;17.194;2023-08-30T01:36:50;2.08;;;0.85;;
34876;SDS011;21086;44.780;17.194;2023-08-30T01:39:38;4.80;;;1.10;;
34876;SDS011;21086;44.780;17.194;2023-08-30T01:42:28;2.58;;;1.13;;
34876;SDS011;21086;44.780;17.194;2023-08-30T01:45:16;2.67;;;1.10;;
34876;SDS011;21086;44.780;17.194;2023-08-30T01:48:05;4.07;;;0.90;;
34876;SDS011;21086;44.780;17.194;2023-08-30T01:50:56;2.35;;;1.13;;
34876;SDS011;21086;44.780;17.194;2023-08-30T01:53:47;2.42;;;1.38;;
34876;SDS011;21086;44.780;17.194;2023-08-30T01:56:35;3.08;;;1.70;;
34876;SDS011;21086;44.780;17.194;2023-08-30T01:59:22;2.45;;;1.42;;
34876;SDS011;21086;44.780;17.194;2023-08-30T02:02:10;2.67;;;1.60;;
34876;SDS011;21086;44.780;17.194;2023-08-30T02:04:57;1.40;;;1.17;;
34876;SDS011;21086;44.780;17.194;2023-08-30T02:08:08;1.80;;;1.30;;
34876;SDS011;21086;44.780;17.194;2023-08-30T02:11:01;5.13;;;1.85;;
34876;SDS011;21086;44.780;17.194;2023-08-30T02:13:50;3.20;;;1.70;;
34876;SDS011;21086;44.780;17.194;2023-08-30T02:16:40;2.72;;;1.33;;
34876;SDS011;21086;44.780;17.194;2023-08-30T02:19:28;2.75;;;1.60;;
34876;SDS011;21086;44.780;17.194;2023-08-30T02:22:16;3.42;;;1.35;;
34876;SDS011;21086;44.780;17.194;2023-08-30T02:25:03;1.30;;;1.05;;
34876;SDS011;21086;44.780;17.194;2023-08-30T02:27:51;4.57;;;1.33;;
34876;SDS011;21086;44.780;17.194;2023-08-30T02:30:39;3.58;;;1.30;;
34876;SDS011;21086;44.780;17.194;2023-08-30T02:33:26;2.25;;;1.30;;
34876;SDS011;21086;44.780;17.194;2023-08-30T02:36:14;2.33;;;1.42;;
34876;SDS011;21086;44.780;17.194;2023-08-30T02:39:01;2.20;;;1.05;;
34876;SDS011;21086;44.780;17.194;2023-08-30T02:41:50;2.70;;;1.27;;
34876;SDS011;21086;44.780;17.194;2023-08-30T02:44:37;0.98;;;0.90;;
34876;SDS011;21086;44.780;17.194;2023-08-30T02:47:24;2.50;;;0.98;;
34876;SDS011;21086;44.780;17.194;2023-08-30T02:50:11;2.00;;;1.10;;
34876;SDS011;21086;44.780;17.194;2023-08-30T02:52:59;3.58;;;0.93;;
34876;SDS011;21086;44.780;17.194;2023-08-30T02:55:49;3.80;;;1.15;;
34876;SDS011;21086;44.780;17.194;2023-08-30T02:58:36;2.58;;;1.23;;
34876;SDS011;21086;44.780;17.194;2023-08-30T03:01:24;1.80;;;1.10;;
34876;SDS011;21086;44.780;17.194;2023-08-30T03:04:11;3.03;;;1.30;;
34876;SDS011;21086;44.780;17.194;2023-08-30T03:06:58;1.75;;;0.90;;
34876;SDS011;21086;44.780;17.194;2023-08-30T03:09:45;2.00;;;1.08;;
34876;SDS011;21086;44.780;17.194;2023-08-30T03:12:33;1.33;;;0.90;;
34876;SDS011;21086;44.780;17.194;2023-08-30T03:15:20;2.15;;;1.08;;
34876;SDS011;21086;44.780;17.194;2023-08-30T03:18:07;2.30;;;0.88;;
34876;SDS011;21086;44.780;17.194;2023-08-30T03:21:01;3.15;;;1.55;;
34876;SDS011;21086;44.780;17.194;2023-08-30T03:23:49;2.53;;;1.10;;
34876;SDS011;21086;44.780;17.194;2023-08-30T03:26:36;2.47;;;1.08;;
34876;SDS011;21086;44.780;17.194;2023-08-30T03:29:23;1.75;;;1.10;;
34876;SDS011;21086;44.780;17.194;2023-08-30T03:32:13;1.88;;;0.90;;
34876;SDS011;21086;44.780;17.194;2023-08-30T03:35:01;2.88;;;0.90;;
34876;SDS011;21086;44.780;17.194;2023-08-30T03:37:50;2.88;;;0.88;;
34876;SDS011;21086;44.780;17.194;2023-08-30T03:40:37;1.38;;;0.70;;
34876;SDS011;21086;44.780;17.194;2023-08-30T03:43:26;2.22;;;0.93;;
34876;SDS011;21086;44.780;17.194;2023-08-30T03:46:13;3.00;;;0.90;;
34876;SDS011;21086;44.780;17.194;2023-08-30T03:49:00;2.25;;;0.93;;
34876;SDS011;21086;44.780;17.194;2023-08-30T03:51:47;2.88;;;0.88;;
34876;SDS011;21086;44.780;17.194;2023-08-30T03:54:35;2.00;;;0.82;;
34876;SDS011;21086;44.780;17.194;2023-08-30T03:57:22;1.35;;;0.60;;
34876;SDS011;21086;44.780;17.194;2023-08-30T04:00:10;2.25;;;0.68;;
34876;SDS011;21086;44.780;17.194;2023-08-30T04:02:58;3.40;;;0.90;;
34876;SDS011;21086;44.780;17.194;2023-08-30T04:05:45;2.90;;;0.90;;
34876;SDS011;21086;44.780;17.194;2023-08-30T04:08:33;1.80;;;0.50;;
34876;SDS011;21086;44.780;17.194;2023-08-30T04:11:20;2.35;;;0.70;;
34876;SDS011;21086;44.780;17.194;2023-08-30T04:14:07;1.95;;;0.65;;
34876;SDS011;21086;44.780;17.194;2023-08-30T04:16:54;2.28;;;0.60;;
34876;SDS011;21086;44.780;17.194;2023-08-30T04:19:42;1.77;;;0.80;;
34876;SDS011;21086;44.780;17.194;2023-08-30T04:22:29;3.50;;;0.70;;
34876;SDS011;21086;44.780;17.194;2023-08-30T04:25:17;1.63;;;0.82;;
34876;SDS011;21086;44.780;17.194;2023-08-30T04:28:04;2.53;;;1.20;;
34876;SDS011;21086;44.780;17.194;2023-08-30T04:30:53;1.90;;;0.90;;
34876;SDS011;21086;44.780;17.194;2023-08-30T04:33:41;2.45;;;0.90;;
34876;SDS011;21086;44.780;17.194;2023-08-30T04:36:29;3.22;;;1.13;;
34876;SDS011;21086;44.780;17.194;2023-08-30T04:39:16;1.90;;;1.08;;
34876;SDS011;21086;44.780;17.194;2023-08-30T04:42:03;3.42;;;1.33;;
34876;SDS011;21086;44.780;17.194;2023-08-30T04:44:51;1.42;;;1.08;;
34876;SDS011;21086;44.780;17.194;2023-08-30T04:47:41;2.67;;;1.20;;
34876;SDS011;21086;44.780;17.194;2023-08-30T04:50:30;4.07;;;1.33;;
34876;SDS011;21086;44.780;17.194;2023-08-30T04:53:17;4.85;;;1.30;;
34876;SDS011;21086;44.780;17.194;2023-08-30T04:56:11;1.67;;;1.23;;
34876;SDS011;21086;44.780;17.194;2023-08-30T04:58:59;2.97;;;1.17;;
34876;SDS011;21086;44.780;17.194;2023-08-30T05:01:50;1.77;;;1.00;;
34876;SDS011;21086;44.780;17.194;2023-08-30T05:04:38;2.85;;;1.15;;
34876;SDS011;21086;44.780;17.194;2023-08-30T05:07:25;2.10;;;0.85;;
34876;SDS011;21086;44.780;17.194;2023-08-30T05:10:12;2.53;;;0.70;;
34876;SDS011;21086;44.780;17.194;2023-08-30T05:13:00;2.95;;;0.98;;
34876;SDS011;21086;44.780;17.194;2023-08-30T05:15:47;1.65;;;1.05;;
34876;SDS011;21086;44.780;17.194;2023-08-30T05:18:34;3.90;;;1.08;;
34876;SDS011;21086;44.780;17.194;2023-08-30T05:21:22;1.35;;;0.68;;
34876;SDS011;21086;44.780;17.194;2023-08-30T05:24:09;0.70;;;0.47;;
34876;SDS011;21086;44.780;17.194;2023-08-30T05:26:56;3.63;;;0.95;;
34876;SDS011;21086;44.780;17.194;2023-08-30T05:29:44;3.25;;;1.00;;
34876;SDS011;21086;44.780;17.194;2023-08-30T05:32:31;1.55;;;0.80;;
34876;SDS011;21086;44.780;17.194;2023-08-30T05:35:18;1.75;;;0.95;;
34876;SDS011;21086;44.780;17.194;2023-08-30T05:38:06;2.65;;;0.88;;
34876;SDS011;21086;44.780;17.194;2023-08-30T05:40:54;1.13;;;0.80;;
34876;SDS011;21086;44.780;17.194;2023-08-30T05:43:41;0.82;;;0.47;;
34876;SDS011;21086;44.780;17.194;2023-08-30T05:46:28;3.30;;;1.15;;
34876;SDS011;21086;44.780;17.194;2023-08-30T05:49:15;3.20;;;1.20;;
34876;SDS011;21086;44.780;17.194;2023-08-30T05:52:03;2.47;;;1.25;;
34876;SDS011;21086;44.780;17.194;2023-08-30T05:54:50;3.08;;;1.25;;
34876;SDS011;21086;44.780;17.194;2023-08-30T05:57:38;4.93;;;1.10;;
34876;SDS011;21086;44.780;17.194;2023-08-30T06:00:25;2.30;;;1.13;;
34876;SDS011;21086;44.780;17.194;2023-08-30T06:03:12;4.88;;;1.83;;
34876;SDS011;21086;44.780;17.194;2023-08-30T06:05:59;9.63;;;1.38;;
34876;SDS011;21086;44.780;17.194;2023-08-30T06:08:48;2.53;;;1.33;;
34876;SDS011;21086;44.780;17.194;2023-08-30T06:11:35;2.78;;;1.00;;
34876;SDS011;21086;44.780;17.194;2023-08-30T06:14:22;2.42;;;1.27;;
34876;SDS011;21086;44.780;17.194;2023-08-30T06:17:10;3.00;;;1.27;;
34876;SDS011;21086;44.780;17.194;2023-08-30T06:19:57;2.20;;;1.10;;
34876;SDS011;21086;44.780;17.194;2023-08-30T06:22:44;5.18;;;1.65;;
34876;SDS011;21086;44.780;17.194;2023-08-30T06:25:32;2.42;;;1.23;;
34876;SDS011;21086;44.780;17.194;2023-08-30T06:28:19;3.22;;;1.48;;
34876;SDS011;21086;44.780;17.194;2023-08-30T06:31:06;3.50;;;1.38;;
34876;SDS011;21086;44.780;17.194;2023-08-30T06:33:54;4.38;;;1.90;;
34876;SDS011;21086;44.780;17.194;2023-08-30T06:36:42;4.15;;;1.90;;
34876;SDS011;21086;44.780;17.194;2023-08-30T06:39:32;7.93;;;2.00;;
34876;SDS011;21086;44.780;17.194;2023-08-30T06:42:21;3.90;;;1.70;;
34876;SDS011;21086;44.780;17.194;2023-08-30T06:45:08;2.63;;;1.58;;
34876;SDS011;21086;44.780;17.194;2023-08-30T06:47:56;2.25;;;1.48;;
34876;SDS011;21086;44.780;17.194;2023-08-30T06:50:43;4.32;;;1.83;;
34876;SDS011;21086;44.780;17.194;2023-08-30T06:53:30;3.42;;;1.65;;
34876;SDS011;21086;44.780;17.194;2023-08-30T06:56:17;2.78;;;1.40;;
34876;SDS011;21086;44.780;17.194;2023-08-30T06:59:05;3.47;;;2.03;;
34876;SDS011;21086;44.780;17.194;2023-08-30T07:01:52;2.30;;;0.95;;
34876;SDS011;21086;44.780;17.194;2023-08-30T07:04:39;1.92;;;1.35;;
34876;SDS011;21086;44.780;17.194;2023-08-30T07:07:27;4.30;;;1.30;;
34876;SDS011;21086;44.780;17.194;2023-08-30T07:10:14;2.53;;;1.60;;
34876;SDS011;21086;44.780;17.194;2023-08-30T07:13:01;6.15;;;1.70;;
34876;SDS011;21086;44.780;17.194;2023-08-30T07:15:50;3.75;;;1.30;;
34876;SDS011;21086;44.780;17.194;2023-08-30T07:18:38;4.57;;;1.80;;
34876;SDS011;21086;44.780;17.194;2023-08-30T07:21:26;2.63;;;1.60;;
34876;SDS011;21086;44.780;17.194;2023-08-30T07:24:13;5.30;;;1.80;;
34876;SDS011;21086;44.780;17.194;2023-08-30T07:27:00;2.38;;;1.60;;
34876;SDS011;21086;44.780;17.194;2023-08-30T07:29:48;3.03;;;1.50;;
34876;SDS011;21086;44.780;17.194;2023-08-30T07:32:35;3.22;;;1.30;;
34876;SDS011;21086;44.780;17.194;2023-08-30T07:35:24;4.53;;;1.90;;
34876;SDS011;21086;44.780;17.194;2023-08-30T07:38:12;3.47;;;1.77;;
34876;SDS011;21086;44.780;17.194;2023-08-30T07:40:59;2.70;;;1.40;;
34876;SDS011;21086;44.780;17.194;2023-08-30T07:43:46;3.65;;;1.38;;
34876;SDS011;21086;44.780;17.194;2023-08-30T07:46:34;2.88;;;1.40;;
34876;SDS011;21086;44.780;17.194;2023-08-30T07:49:21;1.30;;;1.20;;
34876;SDS011;21086;44.780;17.194;2023-08-30T07:52:08;1.65;;;1.40;;
34876;SDS011;21086;44.780;17.194;2023-08-30T07:54:57;7.25;;;1.90;;
34876;SDS011;21086;44.780;17.194;2023-08-30T07:57:45;2.60;;;1.70;;
34876;SDS011;21086;44.780;17.194;2023-08-30T08:00:32;2.53;;;1.48;;
34876;SDS011;21086;44.780;17.194;2023-08-30T08:03:23;2.38;;;1.85;;
34876;SDS011;21086;44.780;17.194;2023-08-30T08:06:10;1.90;;;1.42;;
34876;SDS011;21086;44.780;17.194;2023-08-30T08:08:57;3.83;;;1.50;;
34876;SDS011;21086;44.780;17.194;2023-08-30T08:11:45;2.88;;;1.60;;
34876;SDS011;21086;44.780;17.194;2023-08-30T08:14:32;4.82;;;1.80;;
34876;SDS011;21086;44.780;17.194;2023-08-30T08:17:20;3.17;;;2.08;;
34876;SDS011;21086;44.780;17.194;2023-08-30T08:20:07;2.60;;;1.98;;
34876;SDS011;21086;44.780;17.194;2023-08-30T08:22:54;2.35;;;1.58;;
34876;SDS011;21086;44.780;17.194;2023-08-30T08:25:42;6.18;;;2.63;;
34876;SDS011;21086;44.780;17.194;2023-08-30T08:28:29;2.47;;;1.80;;
34876;SDS011;21086;44.780;17.194;2023-08-30T08:31:16;2.13;;;1.48;;
34876;SDS011;21086;44.780;17.194;2023-08-30T08:34:11;1.90;;;1.70;;
34876;SDS011;21086;44.780;17.194;2023-08-30T08:36:59;2.47;;;1.80;;
34876;SDS011;21086;44.780;17.194;2023-08-30T08:39:46;2.20;;;1.65;;
34876;SDS011;21086;44.780;17.194;2023-08-30T08:42:34;2.53;;;1.85;;
34876;SDS011;21086;44.780;17.194;2023-08-30T08:45:22;2.72;;;1.77;;
34876;SDS011;21086;44.780;17.194;2023-08-30T08:48:10;3.55;;;2.53;;
34876;SDS011;21086;44.780;17.194;2023-08-30T08:51:00;5.25;;;1.98;;
34876;SDS011;21086;44.780;17.194;2023-08-30T08:53:47;3.70;;;1.88;;
34876;SDS011;21086;44.780;17.194;2023-08-30T08:56:35;3.13;;;1.98;;
34876;SDS011;21086;44.780;17.194;2023-08-30T08:59:24;3.50;;;1.70;;
34876;SDS011;21086;44.780;17.194;2023-08-30T09:02:11;2.58;;;2.00;;
34876;SDS011;21086;44.780;17.194;2023-08-30T09:05:00;4.13;;;1.95;;
34876;SDS011;21086;44.780;17.194;2023-08-30T09:07:48;2.53;;;1.60;;
34876;SDS011;21086;44.780;17.194;2023-08-30T09:10:40;2.97;;;1.30;;
34876;SDS011;21086;44.780;17.194;2023-08-30T09:13:28;3.17;;;1.35;;
34876;SDS011;21086;44.780;17.194;2023-08-30T09:16:17;2.80;;;1.38;;
34876;SDS011;21086;44.780;17.194;2023-08-30T09:19:05;2.35;;;1.33;;
34876;SDS011;21086;44.780;17.194;2023-08-30T09:21:57;2.63;;;1.60;;
34876;SDS011;21086;44.780;17.194;2023-08-30T09:24:45;3.15;;;1.90;;
34876;SDS011;21086;44.780;17.194;2023-08-30T09:27:33;5.90;;;1.88;;
34876;SDS011;21086;44.780;17.194;2023-08-30T09:30:21;3.63;;;1.35;;
34876;SDS011;21086;44.780;17.194;2023-08-30T09:33:08;2.53;;;1.52;;
34876;SDS011;21086;44.780;17.194;2023-08-30T09:35:56;2.08;;;1.45;;
34876;SDS011;21086;44.780;17.194;2023-08-30T09:38:50;2.88;;;1.23;;
34876;SDS011;21086;44.780;17.194;2023-08-30T09:41:41;1.95;;;1.23;;
34876;SDS011;21086;44.780;17.194;2023-08-30T09:44:30;3.75;;;1.60;;
34876;SDS011;21086;44.780;17.194;2023-08-30T09:47:17;3.13;;;1.50;;
34876;SDS011;21086;44.780;17.194;2023-08-30T09:50:05;2.42;;;1.50;;
34876;SDS011;21086;44.780;17.194;2023-08-30T09:52:53;4.18;;;1.67;;
34876;SDS011;21086;44.780;17.194;2023-08-30T09:55:40;3.42;;;1.77;;
34876;SDS011;21086;44.780;17.194;2023-08-30T09:58:29;3.15;;;1.55;;
34876;SDS011;21086;44.780;17.194;2023-08-30T10:01:17;2.55;;;1.50;;
34876;SDS011;21086;44.780;17.194;2023-08-30T10:04:05;3.50;;;1.58;;
34876;SDS011;21086;44.780;17.194;2023-08-30T10:06:54;2.28;;;1.15;;
34876;SDS011;21086;44.780;17.194;2023-08-30T10:09:44;1.02;;;0.80;;
34876;SDS011;21086;44.780;17.194;2023-08-30T10:12:52;5.95;;;1.13;;
34876;SDS011;21086;44.780;17.194;2023-08-30T10:15:57;2.58;;;1.20;;
34876;SDS011;21086;44.780;17.194;2023-08-30T10:18:52;3.35;;;1.50;;
34876;SDS011;21086;44.780;17.194;2023-08-30T10:22:09;2.92;;;1.20;;
34876;SDS011;21086;44.780;17.194;2023-08-30T10:25:06;1.63;;;1.02;;
34876;SDS011;21086;44.780;17.194;2023-08-30T10:27:59;1.90;;;1.30;;
34876;SDS011;21086;44.780;17.194;2023-08-30T10:30:47;1.77;;;0.90;;
34876;SDS011;21086;44.780;17.194;2023-08-30T10:33:49;3.90;;;1.60;;
34876;SDS011;21086;44.780;17.194;2023-08-30T10:36:37;2.88;;;1.48;;
34876;SDS011;21086;44.780;17.194;2023-08-30T10:39:27;2.55;;;1.33;;
34876;SDS011;21086;44.780;17.194;2023-08-30T10:42:21;2.38;;;1.20;;
34876;SDS011;21086;44.780;17.194;2023-08-30T10:45:10;2.83;;;1.50;;
34876;SDS011;21086;44.780;17.194;2023-08-30T10:48:00;1.95;;;1.40;;
34876;SDS011;21086;44.780;17.194;2023-08-30T10:50:47;1.58;;;1.08;;
34876;SDS011;21086;44.780;17.194;2023-08-30T10:53:35;3.03;;;1.60;;
34876;SDS011;21086;44.780;17.194;2023-08-30T10:56:29;3.83;;;0.95;;
34876;SDS011;21086;44.780;17.194;2023-08-30T10:59:21;2.17;;;1.10;;
34876;SDS011;21086;44.780;17.194;2023-08-30T11:02:10;3.33;;;1.20;;
34876;SDS011;21086;44.780;17.194;2023-08-30T11:04:57;2.55;;;1.30;;
34876;SDS011;21086;44.780;17.194;2023-08-30T11:07:46;2.63;;;1.00;;
34876;SDS011;21086;44.780;17.194;2023-08-30T11:10:35;1.52;;;0.98;;
34876;SDS011;21086;44.780;17.194;2023-08-30T11:13:23;1.60;;;1.15;;
34876;SDS011;21086;44.780;17.194;2023-08-30T11:16:11;1.98;;;0.90;;
34876;SDS011;21086;44.780;17.194;2023-08-30T11:18:58;2.13;;;0.93;;
34876;SDS011;21086;44.780;17.194;2023-08-30T11:21:50;2.03;;;1.02;;
34876;SDS011;21086;44.780;17.194;2023-08-30T11:24:37;1.75;;;1.02;;
34876;SDS011;21086;44.780;17.194;2023-08-30T11:27:26;1.83;;;1.02;;
34876;SDS011;21086;44.780;17.194;2023-08-30T11:30:13;3.80;;;1.35;;
34876;SDS011;21086;44.780;17.194;2023-08-30T11:33:00;3.05;;;1.15;;
34876;SDS011;21086;44.780;17.194;2023-08-30T11:35:51;2.67;;;1.27;;
34876;SDS011;21086;44.780;17.194;2023-08-30T11:38:38;1.85;;;0.70;;
34876;SDS011;21086;44.780;17.194;2023-08-30T11:41:27;0.93;;;0.65;;
34876;SDS011;21086;44.780;17.194;2023-08-30T11:44:14;2.28;;;0.80;;
34876;SDS011;21086;44.780;17.194;2023-08-30T11:47:03;3.78;;;1.00;;
34876;SDS011;21086;44.780;17.194;2023-08-30T11:49:57;2.22;;;1.00;;
34876;SDS011;21086;44.780;17.194;2023-08-30T11:52:46;2.08;;;0.70;;
34876;SDS011;21086;44.780;17.194;2023-08-30T11:55:33;2.53;;;0.70;;
34876;SDS011;21086;44.780;17.194;2023-08-30T11:58:21;2.20;;;0.93;;
34876;SDS011;21086;44.780;17.194;2023-08-30T12:01:08;1.17;;;0.90;;
34876;SDS011;21086;44.780;17.194;2023-08-30T12:03:56;2.22;;;0.98;;
34876;SDS011;21086;44.780;17.194;2023-08-30T12:06:43;2.67;;;0.75;;
34876;SDS011;21086;44.780;17.194;2023-08-30T12:09:31;1.65;;;0.90;;
34876;SDS011;21086;44.780;17.194;2023-08-30T12:12:18;4.75;;;0.90;;
34876;SDS011;21086;44.780;17.194;2023-08-30T12:15:09;2.45;;;0.70;;
34876;SDS011;21086;44.780;17.194;2023-08-30T12:18:05;1.88;;;0.77;;
34876;SDS011;21086;44.780;17.194;2023-08-30T12:21:03;2.28;;;0.85;;
34876;SDS011;21086;44.780;17.194;2023-08-30T12:23:59;4.72;;;0.95;;
34876;SDS011;21086;44.780;17.194;2023-08-30T12:26:46;1.33;;;0.60;;
34876;SDS011;21086;44.780;17.194;2023-08-30T12:29:33;7.60;;;0.93;;
34876;SDS011;21086;44.780;17.194;2023-08-30T12:32:21;1.65;;;0.60;;
34876;SDS011;21086;44.780;17.194;2023-08-30T12:35:08;1.00;;;0.70;;
34876;SDS011;21086;44.780;17.194;2023-08-30T12:37:56;2.35;;;0.90;;
34876;SDS011;21086;44.780;17.194;2023-08-30T12:40:44;2.08;;;0.55;;
34876;SDS011;21086;44.780;17.194;2023-08-30T12:43:36;5.68;;;0.75;;
34876;SDS011;21086;44.780;17.194;2023-08-30T12:46:23;1.15;;;0.70;;
34876;SDS011;21086;44.780;17.194;2023-08-30T12:49:10;1.17;;;0.60;;
34876;SDS011;21086;44.780;17.194;2023-08-30T12:51:57;2.50;;;0.90;;
34876;SDS011;21086;44.780;17.194;2023-08-30T12:54:45;2.17;;;0.63;;
34876;SDS011;21086;44.780;17.194;2023-08-30T12:57:32;3.33;;;0.77;;
34876;SDS011;21086;44.780;17.194;2023-08-30T13:00:19;0.98;;;0.50;;
34876;SDS011;21086;44.780;17.194;2023-08-30T13:03:07;2.45;;;0.50;;
34876;SDS011;21086;44.780;17.194;2023-08-30T13:05:55;1.70;;;0.80;;
34876;SDS011;21086;44.780;17.194;2023-08-30T13:08:42;0.70;;;0.30;;
34876;SDS011;21086;44.780;17.194;2023-08-30T13:11:29;1.60;;;0.77;;
34876;SDS011;21086;44.780;17.194;2023-08-30T13:14:19;1.63;;;0.80;;
34876;SDS011;21086;44.780;17.194;2023-08-30T13:17:06;5.00;;;1.05;;
34876;SDS011;21086;44.780;17.194;2023-08-30T13:19:53;2.25;;;0.80;;
34876;SDS011;21086;44.780;17.194;2023-08-30T13:22:42;1.23;;;0.80;;
34876;SDS011;21086;44.780;17.194;2023-08-30T13:25:29;2.03;;;0.90;;
34876;SDS011;21086;44.780;17.194;2023-08-30T13:28:16;2.65;;;1.40;;
34876;SDS011;21086;44.780;17.194;2023-08-30T13:31:06;3.80;;;1.38;;
34876;SDS011;21086;44.780;17.194;2023-08-30T13:33:54;1.30;;;0.90;;
34876;SDS011;21086;44.780;17.194;2023-08-30T13:36:42;1.05;;;0.70;;
34876;SDS011;21086;44.780;17.194;2023-08-30T13:39:29;1.50;;;0.80;;
34876;SDS011;21086;44.780;17.194;2023-08-30T13:42:16;4.47;;;1.50;;
34876;SDS011;21086;44.780;17.194;2023-08-30T13:45:04;4.85;;;1.75;;
34876;SDS011;21086;44.780;17.194;2023-08-30T13:47:52;5.30;;;1.55;;
34876;SDS011;21086;44.780;17.194;2023-08-30T13:50:41;3.35;;;1.48;;
34876;SDS011;21086;44.780;17.194;2023-08-30T13:53:29;3.75;;;1.98;;
34876;SDS011;21086;44.780;17.194;2023-08-30T13:56:17;4.22;;;1.42;;
34876;SDS011;21086;44.780;17.194;2023-08-30T13:59:05;2.80;;;1.38;;
34876;SDS011;21086;44.780;17.194;2023-08-30T14:01:53;3.72;;;1.83;;
34876;SDS011;21086;44.780;17.194;2023-08-30T14:04:41;6.30;;;2.17;;
34876;SDS011;21086;44.780;17.194;2023-08-30T14:07:28;2.85;;;1.20;;
34876;SDS011;21086;44.780;17.194;2023-08-30T14:10:15;5.45;;;1.63;;
34876;SDS011;21086;44.780;17.194;2023-08-30T14:13:07;5.00;;;1.52;;
34876;SDS011;21086;44.780;17.194;2023-08-30T14:15:56;4.90;;;1.50;;
34876;SDS011;21086;44.780;17.194;2023-08-30T14:18:43;3.80;;;1.23;;
34876;SDS011;21086;44.780;17.194;2023-08-30T14:21:31;2.65;;;1.15;;
34876;SDS011;21086;44.780;17.194;2023-08-30T14:24:19;4.97;;;1.77;;
34876;SDS011;21086;44.780;17.194;2023-08-30T14:27:06;4.43;;;2.17;;
34876;SDS011;21086;44.780;17.194;2023-08-30T14:29:54;5.25;;;1.75;;
34876;SDS011;21086;44.780;17.194;2023-08-30T14:32:41;4.10;;;1.95;;
34876;SDS011;21086;44.780;17.194;2023-08-30T14:35:28;3.65;;;1.60;;
34876;SDS011;21086;44.780;17.194;2023-08-30T14:38:18;5.45;;;1.40;;
34876;SDS011;21086;44.780;17.194;2023-08-30T14:41:06;2.22;;;1.10;;
34876;SDS011;21086;44.780;17.194;2023-08-30T14:43:53;3.83;;;1.45;;
34876;SDS011;21086;44.780;17.194;2023-08-30T14:46:40;2.85;;;1.52;;
34876;SDS011;21086;44.780;17.194;2023-08-30T14:49:29;3.13;;;1.20;;
34876;SDS011;21086;44.780;17.194;2023-08-30T14:52:18;2.67;;;1.42;;
34876;SDS011;21086;44.780;17.194;2023-08-30T14:55:05;5.40;;;1.65;;
34876;SDS011;21086;44.780;17.194;2023-08-30T14:57:53;2.47;;;1.23;;
34876;SDS011;21086;44.780;17.194;2023-08-30T15:00:41;2.33;;;1.45;;
34876;SDS011;21086;44.780;17.194;2023-08-30T15:03:28;4.18;;;1.17;;
34876;SDS011;21086;44.780;17.194;2023-08-30T15:06:16;3.28;;;1.60;;
34876;SDS011;21086;44.780;17.194;2023-08-30T15:09:03;1.90;;;1.10;;
34876;SDS011;21086;44.780;17.194;2023-08-30T15:11:50;2.40;;;1.10;;
34876;SDS011;21086;44.780;17.194;2023-08-30T15:14:38;2.80;;;1.48;;
34876;SDS011;21086;44.780;17.194;2023-08-30T15:17:29;2.15;;;1.50;;
34876;SDS011;21086;44.780;17.194;2023-08-30T15:20:16;1.92;;;0.98;;
34876;SDS011;21086;44.780;17.194;2023-08-30T15:23:03;2.70;;;0.98;;
34876;SDS011;21086;44.780;17.194;2023-08-30T15:25:51;1.40;;;0.80;;
34876;SDS011;21086;44.780;17.194;2023-08-30T15:28:38;2.65;;;0.90;;
34876;SDS011;21086;44.780;17.194;2023-08-30T15:31:27;3.08;;;1.10;;
34876;SDS011;21086;44.780;17.194;2023-08-30T15:34:14;3.05;;;1.20;;
34876;SDS011;21086;44.780;17.194;2023-08-30T15:37:01;1.58;;;1.15;;
34876;SDS011;21086;44.780;17.194;2023-08-30T15:40:00;1.83;;;1.05;;
34876;SDS011;21086;44.780;17.194;2023-08-30T15:42:52;2.75;;;1.00;;
34876;SDS011;21086;44.780;17.194;2023-08-30T15:45:39;2.08;;;1.33;;
34876;SDS011;21086;44.780;17.194;2023-08-30T15:48:29;2.30;;;0.90;;
34876;SDS011;21086;44.780;17.194;2023-08-30T15:51:16;2.45;;;1.38;;
34876;SDS011;21086;44.780;17.194;2023-08-30T15:54:10;2.38;;;1.08;;
34876;SDS011;21086;44.780;17.194;2023-08-30T15:56:57;3.65;;;1.05;;
34876;SDS011;21086;44.780;17.194;2023-08-30T15:59:44;1.23;;;0.70;;
34876;SDS011;21086;44.780;17.194;2023-08-30T16:02:32;2.75;;;1.20;;
34876;SDS011;21086;44.780;17.194;2023-08-30T16:05:21;3.90;;;3.00;;
34876;SDS011;21086;44.780;17.194;2023-08-30T16:08:09;2.00;;;1.20;;
34876;SDS011;21086;44.780;17.194;2023-08-30T16:10:57;2.83;;;1.00;;
34876;SDS011;21086;44.780;17.194;2023-08-30T16:13:44;1.90;;;0.90;;
34876;SDS011;21086;44.780;17.194;2023-08-30T16:16:31;3.58;;;1.23;;
34876;SDS011;21086;44.780;17.194;2023-08-30T16:19:19;2.10;;;1.15;;
34876;SDS011;21086;44.780;17.194;2023-08-30T16:22:09;4.32;;;1.20;;
34876;SDS011;21086;44.780;17.194;2023-08-30T16:24:56;3.08;;;1.40;;
34876;SDS011;21086;44.780;17.194;2023-08-30T16:27:43;2.40;;;1.20;;
34876;SDS011;21086;44.780;17.194;2023-08-30T16:30:33;2.50;;;1.40;;
34876;SDS011;21086;44.780;17.194;2023-08-30T16:33:20;2.33;;;1.23;;
34876;SDS011;21086;44.780;17.194;2023-08-30T16:36:08;3.65;;;1.27;;
34876;SDS011;21086;44.780;17.194;2023-08-30T16:38:55;2.35;;;1.30;;
34876;SDS011;21086;44.780;17.194;2023-08-30T16:41:43;2.30;;;1.30;;